createdAt,value
2018-04-20T00:02:21.562Z,10.07
2018-04-20T00:04:49.929Z,10.23
2018-04-20T00:07:18.296Z,10.53
2018-04-20T00:09:46.748Z,9.60
2018-04-20T00:12:15.273Z,9.53
2018-04-20T00:14:43.681Z,8.90
2018-04-20T00:17:12.050Z,9.00
2018-04-20T00:19:40.408Z,10.30
2018-04-20T00:22:08.824Z,9.67
2018-04-20T00:24:37.290Z,10.50
2018-04-20T00:27:05.720Z,11.80
2018-04-20T00:29:34.117Z,10.57
2018-04-20T00:32:02.514Z,11.00
2018-04-20T00:34:30.888Z,10.53
2018-04-20T00:36:59.363Z,11.70
2018-04-20T00:39:27.717Z,9.77
2018-04-20T00:41:56.113Z,11.00
2018-04-20T00:44:24.494Z,10.70
2018-04-20T00:46:52.883Z,10.70
2018-04-20T00:49:21.260Z,10.67
2018-04-20T00:51:49.691Z,9.50
2018-04-20T00:54:24.906Z,9.53
2018-04-20T00:56:53.422Z,10.30
2018-04-20T00:59:21.806Z,10.47
2018-04-20T01:01:50.178Z,10.30
2018-04-20T01:04:18.582Z,9.50
2018-04-20T01:06:46.969Z,10.20
2018-04-20T01:09:15.325Z,10.00
2018-04-20T01:11:43.727Z,8.73
2018-04-20T01:14:12.114Z,8.03
2018-04-20T01:16:40.565Z,7.93
2018-04-20T01:19:08.933Z,8.47
2018-04-20T01:21:37.311Z,7.97
2018-04-20T01:24:05.710Z,7.50
2018-04-20T01:26:34.105Z,8.30
2018-04-20T01:29:02.569Z,7.43
2018-04-20T01:31:31.001Z,7.43
2018-04-20T01:33:59.447Z,6.83
2018-04-20T01:36:27.790Z,8.37
2018-04-20T01:38:56.163Z,7.73
2018-04-20T01:41:24.617Z,8.57
2018-04-20T01:43:53.000Z,6.77
2018-04-20T01:46:21.398Z,7.47
2018-04-20T01:48:49.720Z,7.20
2018-04-20T01:51:18.118Z,6.40
2018-04-20T01:53:46.533Z,6.10
2018-04-20T01:56:14.927Z,7.00
2018-04-20T01:58:43.373Z,6.60
2018-04-20T02:01:11.774Z,6.43
2018-04-20T02:03:40.129Z,6.00
2018-04-20T02:06:08.513Z,6.20
2018-04-20T02:08:36.877Z,7.10
2018-04-20T02:11:05.287Z,5.80
2018-04-20T02:13:33.651Z,6.23
2018-04-20T02:16:02.100Z,6.80
2018-04-20T02:18:30.481Z,6.70
2018-04-20T02:20:58.886Z,6.53
2018-04-20T02:23:27.301Z,6.13
2018-04-20T02:25:55.689Z,6.93
2018-04-20T02:28:24.092Z,6.07
2018-04-20T02:30:52.508Z,5.93
2018-04-20T02:33:20.882Z,6.20
2018-04-20T02:35:49.281Z,7.40
2018-04-20T02:38:17.734Z,6.60
2018-04-20T02:40:46.139Z,6.67
2018-04-20T02:43:14.572Z,6.07
2018-04-20T02:45:42.983Z,6.90
2018-04-20T02:48:11.470Z,5.87
2018-04-20T02:50:39.878Z,6.80
2018-04-20T02:53:08.340Z,7.57
2018-04-20T02:55:36.801Z,7.10
2018-04-20T02:58:05.150Z,7.60
2018-04-20T03:00:33.609Z,6.50
2018-04-20T03:03:02.006Z,7.23
2018-04-20T03:05:30.468Z,7.30
2018-04-20T03:07:58.862Z,7.40
2018-04-20T03:10:27.368Z,8.23
2018-04-20T03:12:55.770Z,8.10
2018-04-20T03:15:24.168Z,7.90
2018-04-20T03:17:52.590Z,7.87
2018-04-20T03:20:20.997Z,7.97
2018-04-20T03:22:49.404Z,8.30
2018-04-20T03:25:17.774Z,7.63
2018-04-20T03:27:46.202Z,7.10
2018-04-20T03:30:14.674Z,7.67
2018-04-20T03:32:43.042Z,6.93
2018-04-20T03:35:11.427Z,7.30
2018-04-20T03:37:39.790Z,7.70
2018-04-20T03:40:08.205Z,6.87
2018-04-20T03:42:36.574Z,6.83
2018-04-20T03:45:04.971Z,6.13
2018-04-20T03:47:33.345Z,7.50
2018-04-20T03:50:01.787Z,6.90
2018-04-20T03:52:30.133Z,6.43
2018-04-20T03:54:58.501Z,7.50
2018-04-20T03:57:26.945Z,7.17
2018-04-20T03:59:55.345Z,6.67
2018-04-20T04:02:23.707Z,7.90
2018-04-20T04:04:52.120Z,6.90
2018-04-20T04:07:20.494Z,7.87
2018-04-20T04:09:48.890Z,7.67
2018-04-20T04:12:17.356Z,7.37
2018-04-20T04:14:45.741Z,7.70
2018-04-20T04:17:25.799Z,7.43
2018-04-20T04:23:07.972Z,7.77
2018-04-20T04:25:47.969Z,7.30
2018-04-20T04:28:26.348Z,7.60
2018-04-20T04:30:54.741Z,7.30
2018-04-20T04:33:23.175Z,7.50
2018-04-20T04:35:51.572Z,6.40
2018-04-20T04:38:19.949Z,6.70
2018-04-20T04:40:48.315Z,6.87
2018-04-20T04:43:16.670Z,6.50
2018-04-20T04:45:45.060Z,7.70
2018-04-20T04:48:13.421Z,6.97
2018-04-20T04:50:41.838Z,7.37
2018-04-20T04:53:10.219Z,6.97
2018-04-20T04:55:38.641Z,6.77
2018-04-20T04:58:07.014Z,6.50
2018-04-20T05:00:35.398Z,7.03
2018-04-20T05:03:03.784Z,6.80
2018-04-20T05:05:32.195Z,6.93
2018-04-20T05:08:00.554Z,6.40
2018-04-20T05:10:28.926Z,7.27
2018-04-20T05:12:57.345Z,5.97
2018-04-20T05:15:25.704Z,6.87
2018-04-20T05:17:54.060Z,7.10
2018-04-20T05:20:22.538Z,7.07
2018-04-20T05:22:50.943Z,6.53
2018-04-20T05:25:19.320Z,6.70
2018-04-20T05:27:47.735Z,7.97
2018-04-20T05:30:16.236Z,7.13
2018-04-20T05:32:44.715Z,6.83
2018-04-20T05:35:13.090Z,7.50
2018-04-20T05:37:41.569Z,6.87
2018-04-20T05:40:09.984Z,6.70
2018-04-20T05:42:38.446Z,6.27
2018-04-20T05:45:11.201Z,7.83
2018-04-20T05:47:40.577Z,10.30
2018-04-20T05:50:09.033Z,8.10
2018-04-20T05:52:37.539Z,8.17
2018-04-20T05:55:05.941Z,7.47
2018-04-20T05:57:34.402Z,6.90
2018-04-20T06:00:03.729Z,7.60
2018-04-20T06:02:32.163Z,7.00
2018-04-20T06:05:00.646Z,6.00
2018-04-20T06:07:29.046Z,6.60
2018-04-20T06:09:57.500Z,5.90
2018-04-20T06:12:25.914Z,6.40
2018-04-20T06:15:03.409Z,5.07
2018-04-20T06:17:31.861Z,4.43
2018-04-20T06:20:00.306Z,5.43
2018-04-20T06:22:28.759Z,4.83
2018-04-20T06:24:57.164Z,5.50
2018-04-20T06:27:25.754Z,4.37
2018-04-20T06:29:54.192Z,4.97
2018-04-20T06:32:22.666Z,5.07
2018-04-20T06:34:54.129Z,5.17
2018-04-20T06:37:22.522Z,4.73
2018-04-20T06:39:50.984Z,4.40
2018-04-20T06:42:19.387Z,4.47
2018-04-20T06:44:47.751Z,4.27
2018-04-20T06:47:16.123Z,5.20
2018-04-20T06:49:44.531Z,3.97
2018-04-20T06:52:12.965Z,3.60
2018-04-20T06:54:41.331Z,3.87
2018-04-20T06:57:10.260Z,4.20
2018-04-20T06:59:38.615Z,3.90
2018-04-20T07:02:06.976Z,3.90
2018-04-20T07:04:35.409Z,3.47
2018-04-20T07:07:03.771Z,3.93
2018-04-20T07:09:32.135Z,4.10
2018-04-20T07:12:00.529Z,4.87
2018-04-20T07:14:28.884Z,3.73
2018-04-20T07:16:57.336Z,4.27
2018-04-20T07:19:25.686Z,3.80
2018-04-20T07:21:54.041Z,3.83
2018-04-20T07:24:22.401Z,4.27
2018-04-20T07:26:50.783Z,4.33
2018-04-20T07:29:19.187Z,3.63
2018-04-20T07:31:47.598Z,4.00
2018-04-20T07:34:16.096Z,4.30
2018-04-20T07:36:44.487Z,4.07
2018-04-20T07:39:12.878Z,4.00
2018-04-20T07:41:41.280Z,4.47
2018-04-20T07:44:09.765Z,4.50
2018-04-20T07:46:38.194Z,4.63
2018-04-20T07:49:06.573Z,4.00
2018-04-20T07:51:34.961Z,3.93
2018-04-20T07:54:03.339Z,3.90
2018-04-20T07:56:31.805Z,3.73
2018-04-20T07:59:00.388Z,3.57
2018-04-20T08:01:28.835Z,3.40
2018-04-20T08:03:57.612Z,3.70
2018-04-20T08:06:26.632Z,3.73
2018-04-20T08:08:55.027Z,3.00
2018-04-20T08:11:23.493Z,3.93
2018-04-20T08:13:51.924Z,4.17
2018-04-20T08:16:20.366Z,3.60
2018-04-20T08:18:48.773Z,3.30
2018-04-20T08:21:17.147Z,3.57
2018-04-20T08:23:45.590Z,2.90
2018-04-20T08:26:13.972Z,3.30
2018-04-20T08:28:42.678Z,3.70
2018-04-20T08:31:11.129Z,2.80
2018-04-20T08:33:39.787Z,3.10
2018-04-20T08:36:08.737Z,3.33
2018-04-20T08:38:39.249Z,2.90
2018-04-20T08:41:08.154Z,3.03
2018-04-20T08:43:40.617Z,3.30
2018-04-20T08:46:11.605Z,3.93
2018-04-20T08:48:41.473Z,3.10
2018-04-20T08:51:11.436Z,3.40
2018-04-20T08:53:42.938Z,4.30
2018-04-20T08:56:22.751Z,2.97
2018-04-20T08:58:54.827Z,3.00
2018-04-20T09:01:29.445Z,2.80
2018-04-20T09:04:08.033Z,3.23
2018-04-20T09:06:42.915Z,3.33
2018-04-20T09:09:17.650Z,2.90
2018-04-20T09:11:48.530Z,3.70
2018-04-20T09:14:16.963Z,3.63
2018-04-20T09:19:19.910Z,3.27
2018-04-20T09:21:48.449Z,3.60
2018-04-20T09:24:16.793Z,3.30
2018-04-20T09:26:45.154Z,3.47
2018-04-20T09:29:13.734Z,3.60
2018-04-20T09:31:42.112Z,3.37
2018-04-20T09:34:10.469Z,2.70
2018-04-20T09:36:38.915Z,3.40
2018-04-20T09:39:07.298Z,3.37
2018-04-20T09:41:35.720Z,3.20
2018-04-20T09:44:04.113Z,3.07
2018-04-20T09:46:32.587Z,2.93
2018-04-20T09:49:00.981Z,2.90
2018-04-20T09:51:29.410Z,3.30
2018-04-20T09:53:57.782Z,3.10
2018-04-20T09:56:26.165Z,3.23
2018-04-20T09:58:54.553Z,3.00
2018-04-20T10:01:24.907Z,3.40
2018-04-20T10:03:57.121Z,3.40
2018-04-20T10:06:25.514Z,3.57
2018-04-20T10:11:37.230Z,3.47
2018-04-20T10:14:05.683Z,3.33
2018-04-20T10:16:34.096Z,2.73
2018-04-20T10:19:02.485Z,3.00
2018-04-20T10:21:30.889Z,2.77
2018-04-20T10:23:59.274Z,3.00
2018-04-20T10:26:27.793Z,3.10
2018-04-20T10:28:56.178Z,3.73
2018-04-20T10:31:24.566Z,2.40
2018-04-20T10:33:53.038Z,3.20
2018-04-20T10:36:21.409Z,2.57
2018-04-20T10:38:49.899Z,2.70
2018-04-20T10:41:18.292Z,2.73
2018-04-20T10:43:46.687Z,3.10
2018-04-20T10:46:15.076Z,2.90
2018-04-20T10:48:43.551Z,3.00
2018-04-20T10:51:11.999Z,2.97
2018-04-20T10:53:40.451Z,2.80
2018-04-20T10:56:08.853Z,3.10
2018-04-20T10:58:37.363Z,2.80
2018-04-20T11:01:05.748Z,2.93
2018-04-20T11:03:34.143Z,2.63
2018-04-20T11:06:02.599Z,2.97
2018-04-20T11:08:31.164Z,2.60
2018-04-20T11:10:59.585Z,2.70
2018-04-20T11:13:28.011Z,2.80
2018-04-20T11:15:56.429Z,3.10
2018-04-20T11:18:24.893Z,2.73
2018-04-20T11:20:53.313Z,2.80
2018-04-20T11:23:21.796Z,3.63
2018-04-20T11:25:50.202Z,2.90
2018-04-20T11:28:18.583Z,2.80
2018-04-20T11:30:46.990Z,2.43
2018-04-20T11:33:15.411Z,3.23
2018-04-20T11:35:43.824Z,2.83
2018-04-20T11:38:12.278Z,3.13
2018-04-20T11:40:40.777Z,2.80
2018-04-20T11:43:09.260Z,2.93
2018-04-20T11:45:37.646Z,2.87
2018-04-20T11:48:06.032Z,3.03
2018-04-20T11:50:34.446Z,2.90
2018-04-20T11:53:03.215Z,2.87
2018-04-20T11:55:31.895Z,3.03
2018-04-20T11:58:00.250Z,3.20
2018-04-20T12:00:28.622Z,3.13
2018-04-20T12:02:56.976Z,2.70
2018-04-20T12:05:25.348Z,3.40
2018-04-20T12:07:53.722Z,3.80
2018-04-20T12:10:22.095Z,2.60
2018-04-20T12:12:50.490Z,2.93
2018-04-20T12:15:18.875Z,3.53
2018-04-20T12:17:47.280Z,3.20
2018-04-20T12:20:15.744Z,3.20
2018-04-20T12:22:44.251Z,2.80
2018-04-20T12:25:12.660Z,3.10
2018-04-20T12:27:41.049Z,3.50
2018-04-20T12:30:09.502Z,3.60
2018-04-20T12:32:38.033Z,2.93
2018-04-20T12:35:06.434Z,3.47
2018-04-20T12:37:34.847Z,3.70
2018-04-20T12:40:03.248Z,3.43
2018-04-20T12:42:31.668Z,4.27
2018-04-20T12:45:00.100Z,3.13
2018-04-20T12:47:28.530Z,3.30
2018-04-20T12:49:56.978Z,3.50
2018-04-20T12:52:25.421Z,3.07
2018-04-20T12:54:53.803Z,2.93
2018-04-20T12:57:22.207Z,3.50
2018-04-20T12:59:50.571Z,3.27
2018-04-20T13:02:18.961Z,3.37
2018-04-20T13:04:47.345Z,3.50
2018-04-20T13:07:15.768Z,3.43
2018-04-20T13:09:44.159Z,3.50
2018-04-20T13:12:12.509Z,3.20
2018-04-20T13:14:40.864Z,3.20
2018-04-20T13:17:09.221Z,3.40
2018-04-20T13:19:37.594Z,3.70
2018-04-20T13:22:05.963Z,3.80
2018-04-20T13:24:34.355Z,3.47
2018-04-20T13:27:02.697Z,3.30
2018-04-20T13:29:31.061Z,3.47
2018-04-20T13:31:59.417Z,3.13
2018-04-20T13:34:27.781Z,3.57
2018-04-20T13:36:56.121Z,2.93
2018-04-20T13:39:24.539Z,3.27
2018-04-20T13:41:52.901Z,3.30
2018-04-20T13:44:21.258Z,3.67
2018-04-20T13:46:49.623Z,3.50
2018-04-20T13:49:18.014Z,3.13
2018-04-20T13:51:46.390Z,2.80
2018-04-20T13:54:14.751Z,3.70
2018-04-20T13:56:43.162Z,2.70
2018-04-20T13:59:11.686Z,3.30
2018-04-20T14:01:40.106Z,3.30
2018-04-20T14:04:08.500Z,3.03
2018-04-20T14:06:36.887Z,3.60
2018-04-20T14:09:06.098Z,3.80
2018-04-20T14:11:34.520Z,3.60
2018-04-20T14:14:02.902Z,3.70
2018-04-20T14:16:31.424Z,3.90
2018-04-20T14:18:59.902Z,3.80
2018-04-20T14:21:28.297Z,3.90
2018-04-20T14:23:56.686Z,4.40
2018-04-20T14:26:25.142Z,4.17
2018-04-20T14:28:53.487Z,4.10
2018-04-20T14:31:21.845Z,4.37
2018-04-20T14:33:50.215Z,4.13
2018-04-20T14:36:18.591Z,4.50
2018-04-20T14:38:46.956Z,3.50
2018-04-20T14:41:15.413Z,3.67
2018-04-20T14:43:43.876Z,3.67
2018-04-20T14:46:12.161Z,4.17
2018-04-20T14:48:40.640Z,3.60
2018-04-20T14:51:09.001Z,3.60
2018-04-20T14:53:37.370Z,3.40
2018-04-20T14:56:05.827Z,3.57
2018-04-20T14:58:34.199Z,3.30
2018-04-20T15:01:02.581Z,3.90
2018-04-20T15:03:30.933Z,3.87
2018-04-20T15:05:59.304Z,3.63
2018-04-20T15:08:27.681Z,3.10
2018-04-20T15:10:56.029Z,3.40
2018-04-20T15:13:24.523Z,3.40
2018-04-20T15:15:52.899Z,3.77
2018-04-20T15:18:21.316Z,3.43
2018-04-20T15:20:49.763Z,3.63
2018-04-20T15:23:18.107Z,3.93
2018-04-20T15:25:46.601Z,3.90
2018-04-20T15:28:14.991Z,3.63
2018-04-20T15:30:43.356Z,3.47
2018-04-20T15:33:11.769Z,3.87
2018-04-20T15:35:40.176Z,3.53
2018-04-20T15:38:08.626Z,3.80
2018-04-20T15:40:37.034Z,3.70
2018-04-20T15:43:05.539Z,3.80
2018-04-20T15:45:33.951Z,4.10
2018-04-20T15:48:02.349Z,3.80
2018-04-20T15:50:30.753Z,7.83
2018-04-20T15:52:59.136Z,11.80
2018-04-20T15:55:27.594Z,12.83
2018-04-20T15:57:56.002Z,12.60
2018-04-20T16:00:24.425Z,14.40
2018-04-20T16:02:52.831Z,13.50
2018-04-20T16:05:21.266Z,14.40
2018-04-20T16:07:49.650Z,16.47
2018-04-20T16:10:18.072Z,15.30
2018-04-20T16:12:46.503Z,14.30
2018-04-20T16:15:14.920Z,14.53
2018-04-20T16:17:43.358Z,14.60
2018-04-20T16:20:11.804Z,14.50
2018-04-20T16:22:40.203Z,15.50
2018-04-20T16:25:08.620Z,13.90
2018-04-20T16:27:37.021Z,17.33
2018-04-20T16:30:05.445Z,14.00
2018-04-20T16:32:33.924Z,14.53
2018-04-20T16:35:02.369Z,15.37
2018-04-20T16:37:30.873Z,14.23
2018-04-20T16:39:59.298Z,14.23
2018-04-20T16:42:27.729Z,15.07
2018-04-20T16:44:56.122Z,15.50
2018-04-20T16:47:24.794Z,17.00
2018-04-20T16:49:53.693Z,13.97
2018-04-20T16:52:22.096Z,16.13
2018-04-20T16:54:50.566Z,15.13
2018-04-20T16:57:18.962Z,14.23
2018-04-20T16:59:47.376Z,12.47
2018-04-20T17:02:15.770Z,13.70
2018-04-20T17:04:44.257Z,14.33
2018-04-20T17:07:12.749Z,16.10
2018-04-20T17:09:41.120Z,14.50
2018-04-20T17:12:09.521Z,14.33
2018-04-20T17:14:37.907Z,13.30
2018-04-20T17:17:06.303Z,14.20
2018-04-20T17:19:34.707Z,11.50
2018-04-20T17:22:03.078Z,12.17
2018-04-20T17:24:31.484Z,12.17
2018-04-20T17:26:59.861Z,10.80
2018-04-20T17:29:28.252Z,13.00
2018-04-20T17:31:56.626Z,12.37
2018-04-20T17:34:25.004Z,11.73
2018-04-20T17:36:53.451Z,10.90
2018-04-20T17:39:21.841Z,11.87
2018-04-20T17:41:50.331Z,13.00
2018-04-20T17:44:18.698Z,11.37
2018-04-20T17:46:47.116Z,11.67
2018-04-20T17:49:15.601Z,10.93
2018-04-20T17:51:44.059Z,11.60
2018-04-20T17:54:12.460Z,11.27
2018-04-20T17:56:40.858Z,11.23
2018-04-20T17:59:09.244Z,9.70
2018-04-20T18:01:37.678Z,9.83
2018-04-20T18:04:06.123Z,9.50
2018-04-20T18:06:34.505Z,8.90
2018-04-20T18:09:02.893Z,10.00
2018-04-20T18:11:31.369Z,10.23
2018-04-20T18:13:59.739Z,8.80
2018-04-20T18:16:28.218Z,10.03
2018-04-20T18:18:56.578Z,9.80
2018-04-20T18:21:24.969Z,9.10
2018-04-20T18:23:53.405Z,9.80
2018-04-20T18:26:21.767Z,9.40
2018-04-20T18:28:50.154Z,9.43
2018-04-20T18:31:18.513Z,9.20
2018-04-20T18:33:46.904Z,9.93
2018-04-20T18:36:15.354Z,10.17
2018-04-20T18:38:43.733Z,9.20
2018-04-20T18:41:12.133Z,9.47
2018-04-20T18:43:40.494Z,9.60
2018-04-20T18:46:08.878Z,9.30
2018-04-20T18:48:37.333Z,9.37
2018-04-20T18:51:05.738Z,10.30
2018-04-20T18:53:34.117Z,10.13
2018-04-20T18:56:02.529Z,10.20
2018-04-20T18:58:30.951Z,9.90
2018-04-20T19:00:59.352Z,10.40
2018-04-20T19:03:27.785Z,10.23
2018-04-20T19:05:56.277Z,11.43
2018-04-20T19:08:24.750Z,10.60
2018-04-20T19:10:53.182Z,10.03
2018-04-20T19:13:21.617Z,12.67
2018-04-20T19:15:50.026Z,12.40
2018-04-20T19:18:18.538Z,11.50
2018-04-20T19:20:46.997Z,12.10
2018-04-20T19:23:15.384Z,11.23
2018-04-20T19:25:43.793Z,12.60
2018-04-20T19:28:12.205Z,11.23
2018-04-20T19:30:40.691Z,10.57
2018-04-20T19:33:09.081Z,11.60
2018-04-20T19:35:37.482Z,12.33
2018-04-20T19:38:05.882Z,10.63
2018-04-20T19:40:34.289Z,12.80
2018-04-20T19:43:02.766Z,12.00
2018-04-20T19:45:31.261Z,11.90
2018-04-20T19:47:59.678Z,11.27
2018-04-20T19:50:28.091Z,11.13
2018-04-20T19:52:56.563Z,11.23
2018-04-20T19:55:24.955Z,12.20
2018-04-20T19:57:53.348Z,11.03
2018-04-20T20:00:21.826Z,9.90
2018-04-20T20:02:50.327Z,10.00
2018-04-20T20:05:18.729Z,8.80
2018-04-20T20:07:47.125Z,9.23
2018-04-20T20:10:15.550Z,10.07
2018-04-20T20:12:44.017Z,10.67
2018-04-20T20:15:12.419Z,9.60
2018-04-20T20:17:40.823Z,10.67
2018-04-20T20:20:09.241Z,11.73
2018-04-20T20:22:37.656Z,11.73
2018-04-20T20:25:06.150Z,12.20
2018-04-20T20:27:34.560Z,12.70
2018-04-20T20:30:02.976Z,11.07
2018-04-20T20:32:31.388Z,10.80
2018-04-20T20:34:59.871Z,10.40
2018-04-20T20:37:28.344Z,10.83
2018-04-20T20:39:56.755Z,13.10
2018-04-20T20:42:25.173Z,11.53
2018-04-20T20:44:53.663Z,11.60
2018-04-20T20:47:22.106Z,12.60
2018-04-20T20:49:50.555Z,12.10
2018-04-20T20:52:18.948Z,12.50
2018-04-20T20:54:47.357Z,11.43
2018-04-20T20:57:15.761Z,11.90
2018-04-20T20:59:44.268Z,9.47
2018-04-20T21:02:12.706Z,12.80
2018-04-20T21:04:41.096Z,8.80
2018-04-20T21:07:09.624Z,8.43
2018-04-20T21:09:38.173Z,8.90
2018-04-20T21:12:06.532Z,8.50
2018-04-20T21:14:34.919Z,8.77
2018-04-20T21:17:03.387Z,9.37
2018-04-20T21:19:31.775Z,8.27
2018-04-20T21:22:00.169Z,8.90
2018-04-20T21:24:28.537Z,10.73
2018-04-20T21:26:56.940Z,10.83
2018-04-20T21:29:25.316Z,11.90
2018-04-20T21:31:53.707Z,11.53
2018-04-20T21:34:22.078Z,11.77
2018-04-20T21:36:50.468Z,11.17
2018-04-20T21:39:18.884Z,11.00
2018-04-20T21:41:47.283Z,11.07
2018-04-20T21:44:15.658Z,10.63
2018-04-20T21:46:44.020Z,11.10
2018-04-20T21:49:12.391Z,10.90
2018-04-20T21:51:40.745Z,10.50
2018-04-20T21:54:09.135Z,10.60
2018-04-20T21:56:37.575Z,9.43
2018-04-20T21:59:05.954Z,8.83
2018-04-20T22:01:34.331Z,8.83
2018-04-20T22:04:02.759Z,8.90
2018-04-20T22:06:31.155Z,9.37
2018-04-20T22:08:59.518Z,8.17
2018-04-20T22:11:27.922Z,9.40
2018-04-20T22:13:56.338Z,10.17
2018-04-20T22:16:24.697Z,8.97
2018-04-20T22:18:53.096Z,9.40
2018-04-20T22:21:21.520Z,9.03
2018-04-20T22:23:50.044Z,10.03
2018-04-20T22:26:18.457Z,9.17
2018-04-20T22:28:46.898Z,10.43
2018-04-20T22:31:15.574Z,11.97
2018-04-20T22:33:44.170Z,10.60
2018-04-20T22:36:12.583Z,10.63
2018-04-20T22:38:40.970Z,11.17
2018-04-20T22:41:09.356Z,10.67
2018-04-20T22:43:37.810Z,10.10
2018-04-20T22:46:06.317Z,10.80
2018-04-20T22:48:34.941Z,10.53
2018-04-20T22:51:03.374Z,11.60
2018-04-20T22:53:31.760Z,8.60
2018-04-20T22:56:00.204Z,9.00
2018-04-20T22:58:28.650Z,9.70
2018-04-20T23:00:57.061Z,9.03
2018-04-20T23:03:25.500Z,10.00
2018-04-20T23:05:53.934Z,8.90
2018-04-20T23:08:22.336Z,9.70
2018-04-20T23:10:50.743Z,12.07
2018-04-20T23:13:19.146Z,10.53
2018-04-20T23:15:47.528Z,11.00
2018-04-20T23:18:15.984Z,10.80
2018-04-20T23:20:44.496Z,11.27
2018-04-20T23:23:12.900Z,12.10
2018-04-20T23:25:41.338Z,12.80
2018-04-20T23:28:09.739Z,10.50
2018-04-20T23:30:38.203Z,12.00
2018-04-20T23:33:06.606Z,12.43
2018-04-20T23:35:34.995Z,11.70
2018-04-20T23:38:03.398Z,12.53
2018-04-20T23:40:31.807Z,11.70
2018-04-20T23:43:00.256Z,12.23
2018-04-20T23:45:28.663Z,12.07
2018-04-20T23:47:57.026Z,12.17
2018-04-20T23:50:25.503Z,11.73
2018-04-20T23:52:53.860Z,11.17
2018-04-20T23:55:22.226Z,11.67
2018-04-20T23:57:50.589Z,12.93
